createdAt,value
2022-09-27T00:01:09.154Z,1005.89
2022-09-27T00:03:36.442Z,1005.91
2022-09-27T00:06:07.410Z,1006.00
2022-09-27T00:08:36.948Z,1006.04
2022-09-27T00:11:06.003Z,1005.85
2022-09-27T00:13:33.590Z,1005.65
2022-09-27T00:16:02.599Z,1005.64
2022-09-27T00:18:29.474Z,1005.59
2022-09-27T00:20:56.387Z,1005.60
2022-09-27T00:23:23.303Z,1005.53
2022-09-27T00:25:59.252Z,1005.46
2022-09-27T00:28:26.895Z,1005.42
2022-09-27T00:30:54.001Z,1005.39
2022-09-27T00:33:20.975Z,1005.51
2022-09-27T00:35:47.987Z,1005.51
2022-09-27T00:38:15.287Z,1005.49
2022-09-27T00:40:42.230Z,1005.45
2022-09-27T00:43:16.453Z,1005.53
2022-09-27T00:45:49.842Z,1005.50
2022-09-27T00:48:19.820Z,1005.50
2022-09-27T00:50:52.924Z,1005.51
2022-09-27T00:53:23.655Z,1005.39
2022-09-27T00:55:57.589Z,1005.30
2022-09-27T00:58:30.221Z,1005.19
2022-09-27T01:01:01.433Z,1005.20
2022-09-27T01:03:34.333Z,1005.13
2022-09-27T01:06:03.147Z,1005.12
2022-09-27T01:08:30.352Z,1005.14
2022-09-27T01:11:13.142Z,1005.12
2022-09-27T01:13:49.224Z,1005.06
2022-09-27T01:16:27.585Z,1004.98
2022-09-27T01:19:06.991Z,1004.99
2022-09-27T01:21:44.918Z,1004.87
2022-09-27T01:24:44.528Z,1004.92
2022-09-27T01:27:34.517Z,1004.80
2022-09-27T01:30:17.553Z,1004.77
2022-09-27T01:32:51.950Z,1004.74
2022-09-27T01:35:25.785Z,1004.77
2022-09-27T01:38:05.303Z,1004.70
2022-09-27T01:40:41.490Z,1004.76
2022-09-27T01:43:12.686Z,1004.74
2022-09-27T01:45:45.923Z,1004.68
2022-09-27T01:48:18.754Z,1004.61
2022-09-27T01:50:50.031Z,1004.53
2022-09-27T01:53:23.024Z,1004.50
2022-09-27T01:55:52.941Z,1004.41
2022-09-27T01:58:26.534Z,1004.35
2022-09-27T02:00:56.128Z,1004.24
2022-09-27T02:03:28.075Z,1004.18
2022-09-27T02:05:59.540Z,1004.20
2022-09-27T02:08:34.339Z,1004.22
2022-09-27T02:11:05.104Z,1004.24
2022-09-27T02:13:38.732Z,1004.30
2022-09-27T02:16:17.415Z,1004.14
2022-09-27T02:18:55.579Z,1004.13
2022-09-27T02:21:33.163Z,1004.10
2022-09-27T02:24:06.039Z,1004.02
2022-09-27T02:26:38.670Z,1004.07
2022-09-27T02:29:09.757Z,1004.09
2022-09-27T02:31:38.648Z,1004.02
2022-09-27T02:34:10.082Z,1003.93
2022-09-27T02:36:37.862Z,1003.82
2022-09-27T02:39:05.405Z,1003.82
2022-09-27T02:41:32.542Z,1003.86
2022-09-27T02:44:03.450Z,1003.87
2022-09-27T02:47:00.704Z,1003.75
2022-09-27T02:49:44.657Z,1003.81
2022-09-27T02:52:23.871Z,1003.67
2022-09-27T02:55:00.175Z,1003.63
2022-09-27T02:57:36.810Z,1003.61
2022-09-27T03:00:07.465Z,1003.56
2022-09-27T03:02:46.573Z,1003.54
2022-09-27T03:05:17.953Z,1003.49
2022-09-27T03:07:46.399Z,1003.45
2022-09-27T03:10:18.375Z,1003.43
2022-09-27T03:12:45.416Z,1003.36
2022-09-27T03:15:16.263Z,1003.34
2022-09-27T03:17:44.837Z,1003.40
2022-09-27T03:20:11.766Z,1003.26
2022-09-27T03:22:38.627Z,1003.28
2022-09-27T03:25:05.967Z,1003.29
2022-09-27T03:27:35.316Z,1003.33
2022-09-27T03:30:04.049Z,1003.10
2022-09-27T03:32:30.859Z,1003.11
2022-09-27T03:35:03.253Z,1003.12
2022-09-27T03:37:30.118Z,1003.12
2022-09-27T03:39:59.111Z,1003.18
2022-09-27T03:42:25.903Z,1003.26
2022-09-27T03:44:53.882Z,1003.27
2022-09-27T03:47:21.460Z,1003.22
2022-09-27T03:49:49.247Z,1003.12
2022-09-27T03:52:17.612Z,1003.10
2022-09-27T03:54:44.468Z,1003.02
2022-09-27T03:57:11.607Z,1003.03
2022-09-27T03:59:38.829Z,1002.99
2022-09-27T04:02:09.408Z,1002.88
2022-09-27T04:04:36.235Z,1002.86
2022-09-27T04:07:03.128Z,1002.84
2022-09-27T04:09:31.730Z,1002.73
2022-09-27T04:11:58.563Z,1002.62
2022-09-27T04:14:25.506Z,1002.60
2022-09-27T04:16:52.429Z,1002.60
2022-09-27T04:19:19.510Z,1002.70
2022-09-27T04:21:46.365Z,1002.65
2022-09-27T04:24:13.615Z,1002.66
2022-09-27T04:26:41.836Z,1002.58
2022-09-27T04:29:09.341Z,1002.53
2022-09-27T04:31:36.320Z,1002.63
2022-09-27T04:34:04.595Z,1002.65
2022-09-27T04:36:32.213Z,1002.50
2022-09-27T04:39:09.279Z,1002.45
2022-09-27T04:41:36.138Z,1002.35
2022-09-27T04:44:08.409Z,1002.39
2022-09-27T04:46:36.117Z,1002.41
2022-09-27T04:49:05.559Z,1002.44
2022-09-27T04:51:32.420Z,1002.40
2022-09-27T04:54:02.981Z,1002.39
2022-09-27T04:56:31.304Z,1002.49
2022-09-27T04:59:09.978Z,1002.37
2022-09-27T05:01:40.292Z,1002.38
2022-09-27T05:04:07.586Z,1002.34
2022-09-27T05:06:34.495Z,1002.43
2022-09-27T05:09:01.695Z,1002.44
2022-09-27T05:11:33.241Z,1002.40
2022-09-27T05:14:00.035Z,1002.39
2022-09-27T05:16:29.733Z,1002.40
2022-09-27T05:19:00.614Z,1002.33
2022-09-27T05:21:27.563Z,1002.41
2022-09-27T05:23:56.147Z,1002.23
2022-09-27T05:26:23.014Z,1002.11
2022-09-27T05:28:49.875Z,1002.08
2022-09-27T05:31:18.269Z,1001.99
2022-09-27T05:33:48.719Z,1002.05
2022-09-27T05:36:17.956Z,1002.10
2022-09-27T05:38:46.112Z,1002.14
2022-09-27T05:41:13.067Z,1002.15
2022-09-27T05:43:40.521Z,1002.13
2022-09-27T05:46:07.825Z,1002.14
2022-09-27T05:48:34.692Z,1002.10
2022-09-27T05:51:01.551Z,1002.06
2022-09-27T05:53:32.223Z,1002.16
2022-09-27T05:56:01.646Z,1002.14
2022-09-27T05:58:28.717Z,1002.03
2022-09-27T06:00:59.650Z,1002.11
2022-09-27T06:03:27.743Z,1002.08
2022-09-27T06:05:57.730Z,1002.12
2022-09-27T06:08:25.655Z,1002.10
2022-09-27T06:11:06.015Z,1002.06
2022-09-27T06:13:37.080Z,1001.91
2022-09-27T06:16:16.191Z,1001.93
2022-09-27T06:18:45.001Z,1001.94
2022-09-27T06:21:13.040Z,1001.91
2022-09-27T06:23:39.949Z,1001.80
2022-09-27T06:26:09.477Z,1001.77
2022-09-27T06:28:37.370Z,1001.74
2022-09-27T06:31:06.822Z,1001.88
2022-09-27T06:33:34.406Z,1001.98
2022-09-27T06:36:05.321Z,1001.97
2022-09-27T06:38:33.029Z,1002.06
2022-09-27T06:41:04.051Z,1002.00
2022-09-27T06:43:33.725Z,1002.01
2022-09-27T06:46:03.240Z,1001.97
2022-09-27T06:48:31.503Z,1001.84
2022-09-27T06:51:00.089Z,1001.87
2022-09-27T06:53:27.904Z,1001.91
2022-09-27T06:55:58.262Z,1002.01
2022-09-27T06:58:25.312Z,1001.99
2022-09-27T07:00:54.173Z,1002.04
2022-09-27T07:03:22.570Z,1002.06
2022-09-27T07:05:55.998Z,1002.12
2022-09-27T07:08:23.624Z,1002.20
2022-09-27T07:10:51.449Z,1002.25
2022-09-27T07:13:22.398Z,1002.29
2022-09-27T07:15:49.433Z,1002.23
2022-09-27T07:18:18.042Z,1002.24
2022-09-27T07:20:50.029Z,1002.27
2022-09-27T07:23:17.690Z,1002.26
2022-09-27T07:25:44.954Z,1002.18
2022-09-27T07:28:19.610Z,1002.11
2022-09-27T07:30:54.060Z,1002.12
2022-09-27T07:33:22.459Z,1002.12
2022-09-27T07:35:49.890Z,1002.18
2022-09-27T07:38:20.106Z,1002.22
2022-09-27T07:40:47.573Z,1002.11
2022-09-27T07:43:17.276Z,1002.28
2022-09-27T07:45:44.179Z,1002.30
2022-09-27T07:48:13.772Z,1002.32
2022-09-27T07:50:42.910Z,1002.38
2022-09-27T07:53:10.092Z,1002.29
2022-09-27T07:55:37.173Z,1002.32
2022-09-27T07:58:05.087Z,1002.36
2022-09-27T08:00:31.914Z,1002.35
2022-09-27T08:03:06.203Z,1002.61
2022-09-27T08:05:35.781Z,1002.49
2022-09-27T08:08:05.871Z,1002.47
2022-09-27T08:10:33.892Z,1002.39
2022-09-27T08:13:03.148Z,1002.36
2022-09-27T08:15:31.202Z,1002.43
2022-09-27T08:18:00.388Z,1002.40
2022-09-27T08:20:29.132Z,1002.43
2022-09-27T08:22:57.373Z,1002.35
2022-09-27T08:25:25.836Z,1002.33
2022-09-27T08:27:56.330Z,1002.25
2022-09-27T08:30:23.939Z,1002.30
2022-09-27T08:32:55.337Z,1002.37
2022-09-27T08:35:22.225Z,1002.43
2022-09-27T08:37:55.421Z,1002.37
2022-09-27T08:40:30.973Z,1002.31
2022-09-27T08:43:06.622Z,1002.42
2022-09-27T08:45:40.551Z,1002.45
2022-09-27T08:48:10.532Z,1002.57
2022-09-27T08:50:42.265Z,1002.60
2022-09-27T08:53:20.701Z,1002.65
2022-09-27T08:55:51.479Z,1002.64
2022-09-27T08:58:25.303Z,1002.81
2022-09-27T09:00:54.384Z,1002.82
2022-09-27T09:03:24.751Z,1002.88
2022-09-27T09:06:09.635Z,1002.87
2022-09-27T09:08:51.243Z,1002.99
2022-09-27T09:11:43.343Z,1002.86
2022-09-27T09:14:28.346Z,1002.94
2022-09-27T09:17:06.317Z,1002.92
2022-09-27T09:19:48.977Z,1003.01
2022-09-27T09:22:29.414Z,1003.02
2022-09-27T09:25:13.035Z,1003.05
2022-09-27T09:27:56.137Z,1003.02
2022-09-27T09:30:38.043Z,1003.00
2022-09-27T09:33:16.706Z,1003.05
2022-09-27T09:35:48.801Z,1003.06
2022-09-27T09:38:20.547Z,1002.98
2022-09-27T09:40:53.677Z,1003.00
2022-09-27T09:43:28.950Z,1003.00
2022-09-27T09:46:09.576Z,1002.97
2022-09-27T09:48:43.296Z,1002.97
2022-09-27T09:51:20.123Z,1002.90
2022-09-27T09:53:52.890Z,1002.77
2022-09-27T09:56:24.246Z,1002.95
2022-09-27T09:58:57.681Z,1002.87
2022-09-27T10:01:30.390Z,1002.86
2022-09-27T10:03:57.254Z,1002.90
2022-09-27T10:06:31.374Z,1002.90
2022-09-27T10:09:00.300Z,1003.05
2022-09-27T10:11:35.521Z,1003.03
2022-09-27T10:14:04.414Z,1003.08
2022-09-27T10:16:33.303Z,1003.16
2022-09-27T10:19:03.376Z,1003.23
2022-09-27T10:21:39.941Z,1003.21
2022-09-27T10:24:17.369Z,1003.39
2022-09-27T10:26:48.964Z,1003.42
2022-09-27T10:29:22.983Z,1003.42
2022-09-27T10:31:52.761Z,1003.44
2022-09-27T10:34:27.102Z,1003.46
2022-09-27T10:37:08.994Z,1003.39
2022-09-27T10:39:36.176Z,1003.38
2022-09-27T10:42:11.031Z,1003.40
2022-09-27T10:44:39.282Z,1003.38
2022-09-27T10:47:09.279Z,1003.34
2022-09-27T10:49:39.029Z,1003.32
2022-09-27T10:52:16.093Z,1003.29
2022-09-27T10:54:52.018Z,1003.17
2022-09-27T10:57:21.558Z,1003.29
2022-09-27T10:59:53.690Z,1003.34
2022-09-27T11:02:23.760Z,1003.36
2022-09-27T11:05:06.740Z,1003.52
2022-09-27T11:07:35.964Z,1003.61
2022-09-27T11:10:21.552Z,1003.71
2022-09-27T11:13:06.223Z,1003.77
2022-09-27T11:15:42.822Z,1003.93
2022-09-27T11:18:24.038Z,1003.96
2022-09-27T11:20:59.061Z,1003.98
2022-09-27T11:23:43.840Z,1004.08
2022-09-27T11:26:17.713Z,1004.15
2022-09-27T11:28:55.334Z,1004.20
2022-09-27T11:31:44.409Z,1004.38
2022-09-27T11:34:35.102Z,1004.32
2022-09-27T11:37:23.448Z,1004.30
2022-09-27T11:40:03.618Z,1004.22
2022-09-27T11:42:57.060Z,1004.19
2022-09-27T11:46:03.487Z,1004.29
2022-09-27T11:48:45.399Z,1004.19
2022-09-27T11:51:27.529Z,1004.19
2022-09-27T11:54:14.676Z,1004.17
2022-09-27T11:56:47.431Z,1004.06
2022-09-27T11:59:44.479Z,1004.07
2022-09-27T12:02:32.496Z,1004.06
2022-09-27T12:05:36.574Z,1003.99
2022-09-27T12:08:20.246Z,1004.11
2022-09-27T12:10:53.493Z,1004.08
2022-09-27T12:13:32.891Z,1004.07
2022-09-27T12:16:08.255Z,1004.04
2022-09-27T12:18:38.995Z,1003.98
2022-09-27T12:21:11.149Z,1003.98
2022-09-27T12:23:45.210Z,1004.02
2022-09-27T12:26:17.730Z,1004.01
2022-09-27T12:28:50.282Z,1003.93
2022-09-27T12:31:30.150Z,1003.91
2022-09-27T12:34:19.326Z,1003.99
2022-09-27T12:36:57.213Z,1003.98
2022-09-27T12:39:29.043Z,1003.95
2022-09-27T12:42:01.469Z,1003.90
2022-09-27T12:44:38.660Z,1003.92
2022-09-27T12:47:10.427Z,1003.89
2022-09-27T12:49:48.741Z,1003.80
2022-09-27T12:52:21.637Z,1003.78
2022-09-27T12:55:03.733Z,1003.80
2022-09-27T12:57:45.927Z,1003.92
2022-09-27T13:00:19.728Z,1003.81
2022-09-27T13:03:15.767Z,1003.70
2022-09-27T13:06:22.614Z,1003.72
2022-09-27T13:09:12.179Z,1003.70
2022-09-27T13:11:47.831Z,1003.77
2022-09-27T13:14:20.992Z,1003.67
2022-09-27T13:16:50.655Z,1003.62
2022-09-27T13:19:40.110Z,1003.56
2022-09-27T13:22:09.365Z,1003.56
2022-09-27T13:24:43.366Z,1003.68
2022-09-27T13:27:36.171Z,1003.58
2022-09-27T13:30:47.213Z,1003.70
2022-09-27T13:33:47.416Z,1003.68
2022-09-27T13:36:31.316Z,1003.71
2022-09-27T13:39:18.076Z,1003.85
2022-09-27T13:42:27.541Z,1003.85
2022-09-27T13:45:20.239Z,1003.91
2022-09-27T13:47:50.217Z,1004.04
2022-09-27T13:50:25.915Z,1004.03
2022-09-27T13:53:02.128Z,1004.00
2022-09-27T13:55:41.060Z,1003.92
2022-09-27T13:58:29.921Z,1004.02
2022-09-27T14:01:06.587Z,1004.05
2022-09-27T14:03:52.477Z,1004.11
2022-09-27T14:06:24.399Z,1004.08
2022-09-27T14:08:57.047Z,1003.96
2022-09-27T14:11:28.310Z,1004.07
2022-09-27T14:13:59.368Z,1004.12
2022-09-27T14:16:32.608Z,1004.11
2022-09-27T14:19:00.513Z,1004.15
2022-09-27T14:21:30.829Z,1004.12
2022-09-27T14:24:21.106Z,1004.17
2022-09-27T14:26:50.505Z,1004.24
2022-09-27T14:29:23.304Z,1004.29
2022-09-27T14:32:04.627Z,1004.50
2022-09-27T14:34:32.561Z,1004.54
2022-09-27T14:37:02.681Z,1004.51
2022-09-27T14:39:33.974Z,1004.49
2022-09-27T14:42:04.114Z,1004.47
2022-09-27T14:44:35.022Z,1004.47
2022-09-27T14:47:09.577Z,1004.46
2022-09-27T14:49:37.551Z,1004.47
2022-09-27T14:52:17.521Z,1004.53
2022-09-27T14:54:44.550Z,1004.68
2022-09-27T14:57:16.394Z,1004.77
2022-09-27T14:59:48.155Z,1004.72
2022-09-27T15:02:19.399Z,1004.91
2022-09-27T15:04:49.378Z,1004.79
2022-09-27T15:07:19.321Z,1004.87
2022-09-27T15:09:46.576Z,1004.94
2022-09-27T15:12:23.542Z,1004.89
2022-09-27T15:14:54.316Z,1004.89
2022-09-27T15:17:22.127Z,1004.96
2022-09-27T15:20:00.860Z,1004.94
2022-09-27T15:22:35.982Z,1004.88
2022-09-27T15:25:20.787Z,1004.89
2022-09-27T15:27:53.419Z,1004.89
2022-09-27T15:30:29.844Z,1004.85
2022-09-27T15:32:57.580Z,1004.92
2022-09-27T15:35:30.366Z,1004.90
2022-09-27T15:38:26.492Z,1005.01
2022-09-27T15:41:10.089Z,1005.00
2022-09-27T15:43:39.927Z,1005.13
2022-09-27T15:46:45.526Z,1005.16
2022-09-27T15:49:28.926Z,1005.29
2022-09-27T15:52:00.567Z,1005.30
2022-09-27T15:54:28.812Z,1005.31
2022-09-27T15:56:57.445Z,1005.21
2022-09-27T15:59:27.051Z,1005.23
2022-09-27T16:01:56.135Z,1005.28
2022-09-27T16:04:24.929Z,1005.27
2022-09-27T16:06:58.755Z,1005.30
2022-09-27T16:09:26.247Z,1005.26
2022-09-27T16:11:53.196Z,1005.22
2022-09-27T16:14:19.953Z,1005.03
2022-09-27T16:16:51.177Z,1004.98
2022-09-27T16:19:18.548Z,1004.87
2022-09-27T16:21:49.820Z,1004.77
2022-09-27T16:24:16.931Z,1004.92
2022-09-27T16:26:44.075Z,1004.92
2022-09-27T16:29:13.344Z,1005.01
2022-09-27T16:31:40.961Z,1005.03
2022-09-27T16:34:08.734Z,1005.08
2022-09-27T16:36:38.546Z,1005.20
2022-09-27T16:39:10.479Z,1005.31
2022-09-27T16:41:38.754Z,1005.35
2022-09-27T16:44:09.913Z,1005.25
2022-09-27T16:46:40.341Z,1005.32
2022-09-27T16:49:07.238Z,1005.39
2022-09-27T16:51:35.324Z,1005.50
2022-09-27T16:54:04.332Z,1005.51
2022-09-27T16:56:32.884Z,1005.62
2022-09-27T16:59:03.522Z,1005.67
2022-09-27T17:01:31.092Z,1005.84
2022-09-27T17:03:58.436Z,1005.91
2022-09-27T17:06:27.388Z,1005.95
2022-09-27T17:08:55.797Z,1006.01
2022-09-27T17:11:23.428Z,1006.12
2022-09-27T17:13:55.523Z,1006.24
2022-09-27T17:16:24.965Z,1006.27
2022-09-27T17:18:51.850Z,1006.25
2022-09-27T17:21:18.720Z,1006.23
2022-09-27T17:23:46.677Z,1006.36
2022-09-27T17:26:17.837Z,1006.59
2022-09-27T17:28:45.380Z,1006.65
2022-09-27T17:31:15.909Z,1006.70
2022-09-27T17:33:45.599Z,1006.69
2022-09-27T17:36:13.965Z,1006.75
2022-09-27T17:38:41.428Z,1006.79
2022-09-27T17:41:10.536Z,1006.88
2022-09-27T17:43:37.942Z,1006.92
2022-09-27T17:46:11.361Z,1006.86
2022-09-27T17:48:39.503Z,1006.88
2022-09-27T17:51:07.434Z,1006.95
2022-09-27T17:53:36.251Z,1006.87
2022-09-27T17:56:03.338Z,1007.06
2022-09-27T17:58:30.129Z,1007.10
2022-09-27T18:01:02.109Z,1007.11
2022-09-27T18:03:29.285Z,1007.12
2022-09-27T18:06:04.955Z,1007.15
2022-09-27T18:08:32.452Z,1007.28
2022-09-27T18:11:05.093Z,1007.42
2022-09-27T18:13:31.963Z,1007.34
2022-09-27T18:15:58.859Z,1007.46
2022-09-27T18:18:25.730Z,1007.59
2022-09-27T18:20:52.808Z,1007.61
2022-09-27T18:23:20.911Z,1007.59
2022-09-27T18:25:53.818Z,1007.66
2022-09-27T18:28:24.623Z,1007.63
2022-09-27T18:30:55.558Z,1007.64
2022-09-27T18:33:22.455Z,1007.71
2022-09-27T18:35:50.213Z,1007.73
2022-09-27T18:38:17.033Z,1007.62
2022-09-27T18:40:56.023Z,1007.82
2022-09-27T18:43:25.661Z,1007.73
2022-09-27T18:45:52.686Z,1007.93
2022-09-27T18:48:22.643Z,1007.95
2022-09-27T18:50:49.362Z,1007.93
2022-09-27T18:53:16.320Z,1007.91
2022-09-27T18:55:43.081Z,1007.90
2022-09-27T18:58:12.318Z,1007.75
2022-09-27T19:00:39.237Z,1007.83
2022-09-27T19:03:12.664Z,1007.82
2022-09-27T19:05:39.383Z,1007.78
2022-09-27T19:08:06.255Z,1007.83
2022-09-27T19:10:34.111Z,1007.93
2022-09-27T19:13:01.474Z,1008.01
2022-09-27T19:15:29.965Z,1007.99
2022-09-27T19:18:01.379Z,1008.05
2022-09-27T19:20:29.147Z,1008.06
2022-09-27T19:22:57.135Z,1008.14
2022-09-27T19:25:23.872Z,1008.20
2022-09-27T19:27:52.472Z,1008.20
2022-09-27T19:30:19.750Z,1008.22
2022-09-27T19:32:48.915Z,1008.14
2022-09-27T19:35:21.122Z,1008.25
2022-09-27T19:37:48.105Z,1008.24
2022-09-27T19:40:20.108Z,1008.35
2022-09-27T19:42:52.536Z,1008.30
2022-09-27T19:45:20.723Z,1008.29
2022-09-27T19:47:48.966Z,1008.27
2022-09-27T19:50:16.766Z,1008.19
2022-09-27T19:52:43.600Z,1008.20
2022-09-27T19:55:11.269Z,1008.18
2022-09-27T19:57:38.175Z,1008.16
2022-09-27T20:00:09.347Z,1008.16
2022-09-27T20:02:36.185Z,1008.30
2022-09-27T20:05:14.029Z,1008.45
2022-09-27T20:07:44.321Z,1008.43
2022-09-27T20:10:11.972Z,1008.43
2022-09-27T20:12:38.699Z,1008.49
2022-09-27T20:15:06.573Z,1008.35
2022-09-27T20:17:34.778Z,1008.41
2022-09-27T20:20:02.008Z,1008.40
2022-09-27T20:22:30.376Z,1008.29
2022-09-27T20:24:57.236Z,1008.26
2022-09-27T20:27:23.962Z,1008.22
2022-09-27T20:29:52.127Z,1008.34
2022-09-27T20:32:28.183Z,1008.35
2022-09-27T20:34:56.567Z,1008.36
2022-09-27T20:37:23.315Z,1008.46
2022-09-27T20:39:53.815Z,1008.48
2022-09-27T20:42:23.946Z,1008.57
2022-09-27T20:44:54.155Z,1008.71
2022-09-27T20:47:23.986Z,1008.88
2022-09-27T20:49:50.735Z,1008.87
2022-09-27T20:52:21.365Z,1008.72
2022-09-27T20:54:48.297Z,1008.75
2022-09-27T20:57:16.558Z,1008.71
2022-09-27T20:59:43.316Z,1008.69
2022-09-27T21:02:11.541Z,1008.57
2022-09-27T21:04:38.340Z,1008.66
2022-09-27T21:07:06.350Z,1008.60
2022-09-27T21:09:33.407Z,1008.67
2022-09-27T21:12:01.807Z,1008.73
2022-09-27T21:14:30.462Z,1008.73
2022-09-27T21:17:03.662Z,1008.79
2022-09-27T21:19:31.397Z,1008.83
2022-09-27T21:22:00.493Z,1008.92
2022-09-27T21:24:28.650Z,1008.84
2022-09-27T21:26:58.775Z,1008.81
2022-09-27T21:29:27.096Z,1008.76
2022-09-27T21:31:55.736Z,1008.68
2022-09-27T21:34:22.844Z,1008.72
2022-09-27T21:36:50.800Z,1008.69
2022-09-27T21:39:18.202Z,1008.69
2022-09-27T21:41:45.086Z,1008.70
2022-09-27T21:44:14.460Z,1008.69
2022-09-27T21:46:46.634Z,1008.76
2022-09-27T21:49:15.195Z,1008.73
2022-09-27T21:51:42.286Z,1008.75
2022-09-27T21:54:12.164Z,1008.80
2022-09-27T21:56:41.736Z,1008.82
2022-09-27T21:59:11.017Z,1008.81
2022-09-27T22:01:43.058Z,1008.77
2022-09-27T22:04:10.380Z,1008.70
2022-09-27T22:06:40.183Z,1008.65
2022-09-27T22:09:11.324Z,1008.54
2022-09-27T22:11:42.451Z,1008.62
2022-09-27T22:14:09.985Z,1008.50
2022-09-27T22:16:42.052Z,1008.49
2022-09-27T22:19:11.382Z,1008.41
2022-09-27T22:21:42.805Z,1008.47
2022-09-27T22:24:13.236Z,1008.53
2022-09-27T22:26:41.440Z,1008.50
2022-09-27T22:29:08.731Z,1008.54
2022-09-27T22:31:36.792Z,1008.57
2022-09-27T22:34:05.998Z,1008.67
2022-09-27T22:36:33.821Z,1008.62
2022-09-27T22:39:03.052Z,1008.57
2022-09-27T22:41:30.002Z,1008.54
2022-09-27T22:43:58.111Z,1008.50
2022-09-27T22:46:25.235Z,1008.35
2022-09-27T22:48:52.474Z,1008.34
2022-09-27T22:51:20.339Z,1008.28
2022-09-27T22:53:54.923Z,1008.27
2022-09-27T22:56:23.592Z,1008.30
2022-09-27T22:58:50.895Z,1008.31
2022-09-27T23:01:20.187Z,1008.29
2022-09-27T23:03:52.502Z,1008.31
2022-09-27T23:06:20.808Z,1008.25
2022-09-27T23:08:48.093Z,1008.33
2022-09-27T23:11:16.344Z,1008.20
2022-09-27T23:13:45.072Z,1008.15
2022-09-27T23:16:14.786Z,1008.18
2022-09-27T23:18:42.153Z,1008.19
2022-09-27T23:21:11.163Z,1008.15
2022-09-27T23:23:39.463Z,1008.16
2022-09-27T23:26:10.940Z,1008.07
2022-09-27T23:28:38.009Z,1008.18
2022-09-27T23:31:09.213Z,1008.29
2022-09-27T23:33:37.148Z,1008.37
2022-09-27T23:36:05.057Z,1008.26
2022-09-27T23:38:32.702Z,1008.36
2022-09-27T23:41:01.049Z,1008.20
2022-09-27T23:43:27.912Z,1008.18
2022-09-27T23:45:54.872Z,1008.12
2022-09-27T23:48:23.222Z,1008.11
2022-09-27T23:50:50.393Z,1008.04
2022-09-27T23:53:17.110Z,1007.96
2022-09-27T23:55:44.385Z,1008.06
2022-09-27T23:58:11.462Z,1007.95
